Dades meteomassalio
Diari Summary for Noviembre 24, 2017 Units:  Metric    English   Both
« Previous Day
Next Day »
Diari Semanal Mensual Anual Personalitzat
  Maxima: Minima: Mijana:
Temperatura: 21.7 °C 3.9 °C 11.1 °C
Rosada: 7.5 °C -2.7 °C 2.3 °C
Humitat: 75 % 35 % 57 %
Velocitat del vent: 22.2 km/h 0.0 km/h 2.6 km/h
Racha vent: 22.2 km/h - -
Vent:- - SW
Pressio: 1023.2 hPa 1020.2 hPa -
Pluja: 0.0 mm    
Historical Graphs
 
 
Tabular Data for Noviembre 24, 2017
Time Temperature Dew Point Pressure Wind Wind Speed Wind Gust Humidity Rainfall Rate (Hourly) solar Conditions
00:07 4.4 °C -0.9 °C 1023.2 hPa Calm     68 % 0.0 mm 0.0 W/m2 CLR
00:12 3.9 °C -1.5 °C 1023.2 hPa Calm     68 % 0.0 mm 0.0 W/m2 CLR
00:17 3.9 °C -1.7 °C 1023.2 hPa Calm     67 % 0.0 mm 0.0 W/m2 CLR
00:27 3.9 °C -1.7 °C 1023.2 hPa Calm     67 % 0.0 mm 0.0 W/m2 CLR
00:47 3.9 °C -1.9 °C 1023.2 hPa Calm     66 % 0.0 mm 0.0 W/m2 CLR
01:02 5.0 °C -1.1 °C 1023.2 hPa SW 3.7 km/h 3.7 km/h 65 % 0.0 mm 0.0 W/m2 CLR
01:12 5.0 °C -1.1 °C 1022.9 hPa NW 5.6 km/h 5.6 km/h 65 % 0.0 mm 0.0 W/m2 CLR
01:17 5.0 °C -1.1 °C 1022.9 hPa Calm     65 % 0.0 mm 0.0 W/m2 CLR
01:22 5.0 °C -1.1 °C 1023.2 hPa Calm     65 % 0.0 mm 0.0 W/m2 CLR
01:27 5.0 °C -1.3 °C 1022.9 hPa Calm     64 % 0.0 mm 0.0 W/m2 CLR
01:32 5.0 °C -1.3 °C 1022.9 hPa Calm     64 % 0.0 mm 0.0 W/m2 CLR
01:37 5.0 °C -1.3 °C 1023.2 hPa Calm     64 % 0.0 mm 0.0 W/m2 CLR
01:42 5.0 °C -1.1 °C 1022.9 hPa Calm     65 % 0.0 mm 0.0 W/m2 CLR
01:52 5.0 °C -1.3 °C 1022.9 hPa Calm     64 % 0.0 mm 0.0 W/m2 CLR
02:07 5.0 °C -1.7 °C 1022.6 hPa Calm     62 % 0.0 mm 0.0 W/m2 CLR
02:12 5.0 °C -1.9 °C 1022.6 hPa Calm     61 % 0.0 mm 0.0 W/m2 CLR
02:17 5.0 °C -1.7 °C 1022.6 hPa Calm     62 % 0.0 mm 0.0 W/m2 CLR
02:22 5.0 °C -1.7 °C 1022.6 hPa Calm     62 % 0.0 mm 0.0 W/m2 CLR
02:27 5.0 °C -1.7 °C 1022.6 hPa Calm     62 % 0.0 mm 0.0 W/m2 CLR
02:47 5.0 °C -1.7 °C 1022.6 hPa Calm     62 % 0.0 mm 0.0 W/m2 CLR
03:02 5.0 °C -2.1 °C 1022.6 hPa Calm     60 % 0.0 mm 0.0 W/m2 CLR
03:07 5.0 °C -1.9 °C 1022.6 hPa Calm     61 % 0.0 mm 0.0 W/m2 CLR
03:12 5.0 °C -1.7 °C 1022.6 hPa Calm     62 % 0.0 mm 0.0 W/m2 CLR
03:17 5.0 °C -1.7 °C 1022.6 hPa Calm     62 % 0.0 mm 0.0 W/m2 CLR
03:27 5.0 °C -1.7 °C 1022.6 hPa Calm     62 % 0.0 mm 0.0 W/m2 CLR
03:52 5.6 °C -1.4 °C 1022.2 hPa Calm     61 % 0.0 mm 0.0 W/m2 CLR
03:57 5.6 °C -1.4 °C 1022.2 hPa Calm     61 % 0.0 mm 0.0 W/m2 CLR
04:13 5.6 °C -1.4 °C 1022.2 hPa Calm     61 % 0.0 mm 0.0 W/m2 CLR
04:18 5.0 °C -1.9 °C 1022.2 hPa Calm     61 % 0.0 mm 0.0 W/m2 CLR
04:19 5.0 °C -1.9 °C 1022.2 hPa Calm     61 % 0.0 mm 0.0 W/m2 CLR
04:21 5.0 °C -1.7 °C 1022.2 hPa Calm     62 % 0.0 mm 0.0 W/m2 CLR
04:26 5.0 °C -1.7 °C 1022.2 hPa Calm     62 % 0.0 mm 0.0 W/m2 CLR
04:30 4.4 °C -2.2 °C 1022.2 hPa Calm     62 % 0.0 mm 0.0 W/m2 CLR
04:35 4.4 °C -2.0 °C 1021.9 hPa Calm     63 % 0.0 mm 0.0 W/m2 CLR
04:40 4.4 °C -2.0 °C 1022.2 hPa Calm     63 % 0.0 mm 0.0 W/m2 CLR
04:45 4.4 °C -2.2 °C 1022.2 hPa Calm     62 % 0.0 mm 0.0 W/m2 CLR
04:50 3.9 °C -2.5 °C 1021.9 hPa Calm     63 % 0.0 mm 0.0 W/m2 CLR
04:55 3.9 °C -2.7 °C 1022.2 hPa Calm     62 % 0.0 mm 0.0 W/m2 CLR
05:00 3.9 °C -2.5 °C 1021.9 hPa Calm     63 % 0.0 mm 0.0 W/m2 CLR
05:05 3.9 °C -2.5 °C 1022.2 hPa Calm     63 % 0.0 mm 0.0 W/m2 CLR
05:10 4.4 °C -2.0 °C 1022.6 hPa Calm     63 % 0.0 mm 0.0 W/m2 CLR
05:15 5.0 °C -1.3 °C 1022.2 hPa Calm     64 % 0.0 mm 0.0 W/m2 CLR
05:30 5.6 °C -0.7 °C 1021.9 hPa Calm     64 % 0.0 mm 0.0 W/m2 CLR
05:35 5.6 °C -0.7 °C 1021.9 hPa East 5.6 km/h   64 % 0.0 mm 0.0 W/m2 CLR
05:40 5.6 °C -0.7 °C 1022.2 hPa Calm     64 % 0.0 mm 0.0 W/m2 CLR
05:45 6.1 °C -0.2 °C 1021.9 hPa NNE 18.5 km/h 18.5 km/h 64 % 0.0 mm 0.0 W/m2 CLR
05:51 6.1 °C 0.0 °C 1022.2 hPa WSW 11.1 km/h 11.1 km/h 65 % 0.0 mm 0.0 W/m2 CLR
05:56 6.7 °C 0.1 °C 1022.2 hPa Calm   0.2 km/h 63 % 0.0 mm 0.0 W/m2 CLR
06:01 6.7 °C -0.1 °C 1022.2 hPa North 13.0 km/h 13.0 km/h 62 % 0.0 mm 0.0 W/m2 CLR
06:06 6.7 °C -0.3 °C 1022.2 hPa Calm     61 % 0.0 mm 0.0 W/m2 CLR
06:21 7.2 °C 0.7 °C 1021.9 hPa Calm     63 % 0.0 mm 0.0 W/m2 CLR
06:26 6.7 °C 0.6 °C 1021.9 hPa Calm     65 % 0.0 mm 0.0 W/m2 CLR
06:36 6.7 °C 0.3 °C 1021.9 hPa Calm     64 % 0.0 mm 0.0 W/m2 CLR
06:41 6.7 °C 0.3 °C 1021.6 hPa Calm     64 % 0.0 mm 0.0 W/m2 CLR
06:46 6.7 °C 0.6 °C 1021.6 hPa Calm     65 % 0.0 mm 0.0 W/m2 CLR
06:51 6.7 °C 0.9 °C 1021.6 hPa Calm     67 % 0.0 mm 0.0 W/m2 CLR
06:56 6.7 °C 0.9 °C 1021.6 hPa Calm     67 % 0.0 mm 0.0 W/m2 CLR
07:01 6.7 °C 1.2 °C 1021.9 hPa Calm     68 % 0.0 mm 0.0 W/m2 CLR
07:06 6.7 °C 1.4 °C 1021.6 hPa Calm     69 % 0.0 mm 0.0 W/m2 CLR
07:11 6.7 °C 1.4 °C 1021.6 hPa Calm     69 % 0.0 mm 0.0 W/m2 CLR
07:16 6.7 °C 1.2 °C 1021.6 hPa Calm     68 % 0.0 mm 0.0 W/m2 CLR
07:21 6.7 °C 1.4 °C 1021.6 hPa Calm     69 % 0.0 mm 0.0 W/m2 CLR
07:26 6.7 °C 1.8 °C 1021.6 hPa Calm     71 % 0.0 mm 0.0 W/m2 CLR
07:46 7.2 °C 1.9 °C 1021.9 hPa Calm     69 % 0.0 mm 0.0 W/m2 CLR
07:51 7.2 °C 2.3 °C 1021.9 hPa Calm     71 % 0.0 mm 0.0 W/m2 OVC
08:12 7.2 °C 2.7 °C 1021.9 hPa Calm     73 % 0.0 mm 9.0 W/m2 BKN
08:22 7.8 °C 3.2 °C 1021.9 hPa Calm     73 % 0.0 mm 26.0 W/m2 BKN
08:27 7.8 °C 3.2 °C 1022.2 hPa Calm     73 % 0.0 mm 32.0 W/m2 BKN
08:32 7.8 °C 3.2 °C 1022.2 hPa Calm     73 % 0.0 mm 32.0 W/m2 BKN
08:37 7.8 °C 3.2 °C 1022.2 hPa Calm     73 % 0.0 mm 30.0 W/m2 BKN
08:42 7.8 °C 3.2 °C 1022.2 hPa Calm     73 % 0.0 mm 25.0 W/m2 BKN
08:47 7.8 °C 3.2 °C 1022.6 hPa Calm     73 % 0.0 mm 19.0 W/m2 BKN
08:52 8.3 °C 3.8 °C 1022.6 hPa Calm     73 % 0.0 mm 21.0 W/m2 BKN
08:57 8.3 °C 3.6 °C 1022.6 hPa Calm     72 % 0.0 mm 28.0 W/m2 BKN
09:02 8.3 °C 3.4 °C 1022.6 hPa Calm     71 % 0.0 mm 44.0 W/m2 BKN
09:07 8.3 °C 3.4 °C 1022.6 hPa Calm     71 % 0.0 mm 60.0 W/m2 BKN
09:12 8.9 °C 3.9 °C 1022.9 hPa Calm     71 % 0.0 mm 72.0 W/m2 SCT
09:17 8.9 °C 3.3 °C 1022.9 hPa Calm     68 % 0.0 mm 74.0 W/m2 FEW
09:37 9.4 °C 4.4 °C 1022.9 hPa Calm     71 % 0.0 mm 121.0 W/m2 CLR
09:42 10.0 °C 5.0 °C 1022.9 hPa Calm     71 % 0.0 mm 104.0 W/m2 CLR
09:47 10.0 °C 5.0 °C 1022.9 hPa Calm     71 % 0.0 mm 100.0 W/m2 CLR
09:52 10.0 °C 4.8 °C 1022.9 hPa Calm     70 % 0.0 mm 91.0 W/m2 CLR
09:57 10.0 °C 4.8 °C 1022.9 hPa Calm     70 % 0.0 mm 77.0 W/m2 CLR
10:02 10.0 °C 5.0 °C 1022.9 hPa Calm     71 % 0.0 mm 81.0 W/m2 CLR
10:07 10.0 °C 4.8 °C 1023.2 hPa Calm     70 % 0.0 mm 69.0 W/m2 FEW
10:12 10.0 °C 4.8 °C 1023.2 hPa Calm     70 % 0.0 mm 269.0 W/m2 CLR
10:17 10.0 °C 4.2 °C 1023.2 hPa Calm     67 % 0.0 mm 134.0 W/m2 CLR
10:27 10.6 °C 3.6 °C 1023.2 hPa Calm     62 % 0.0 mm 308.0 W/m2 CLR
10:52 13.3 °C 3.4 °C 1023.2 hPa Calm     51 % 0.0 mm 352.0 W/m2 CLR
11:02 15.0 °C 4.4 °C 1022.9 hPa Calm     49 % 0.0 mm 367.0 W/m2 CLR
11:07 15.0 °C 3.4 °C 1022.9 hPa Calm     46 % 0.0 mm 374.0 W/m2 CLR
11:12 15.0 °C 2.8 °C 1022.9 hPa Calm     44 % 0.0 mm 383.0 W/m2 CLR
11:17 15.6 °C 3.3 °C 1022.9 hPa Calm     44 % 0.0 mm 390.0 W/m2 CLR
11:22 16.1 °C 3.5 °C 1022.9 hPa Calm     43 % 0.0 mm 396.0 W/m2 CLR
11:27 17.2 °C 3.8 °C 1022.9 hPa Calm     41 % 0.0 mm 401.0 W/m2 CLR
11:32 17.2 °C 3.5 °C 1022.6 hPa North 5.6 km/h 5.6 km/h 40 % 0.0 mm 411.0 W/m2 CLR
11:37 17.8 °C 3.3 °C 1022.6 hPa NW 14.8 km/h 14.8 km/h 38 % 0.0 mm 410.0 W/m2 CLR
11:42 18.3 °C 3.4 °C 1022.6 hPa NW 3.7 km/h 3.7 km/h 37 % 0.0 mm 413.0 W/m2 CLR
11:47 18.9 °C 3.5 °C 1022.2 hPa NW 7.4 km/h 7.4 km/h 36 % 0.0 mm 427.0 W/m2 CLR
11:52 19.4 °C 3.9 °C 1022.2 hPa NW 14.8 km/h 14.8 km/h 36 % 0.0 mm 432.0 W/m2 CLR
11:57 20.0 °C 4.4 °C 1022.2 hPa NNW 18.5 km/h 18.5 km/h 36 % 0.0 mm 441.0 W/m2 CLR
11:58 20.0 °C 4.4 °C 1021.9 hPa NNW 18.5 km/h 18.5 km/h 36 % 0.0 mm 441.0 W/m2 CLR
12:03 20.0 °C 4.4 °C 1021.9 hPa North 5.6 km/h 5.6 km/h 36 % 0.0 mm 446.0 W/m2 CLR
12:08 20.0 °C 4.4 °C 1021.6 hPa WSW 1.9 km/h 1.9 km/h 36 % 0.0 mm 454.0 W/m2 CLR
12:13 20.0 °C 4.4 °C 1021.6 hPa WSW 5.6 km/h 5.6 km/h 36 % 0.0 mm 454.0 W/m2 CLR
12:18 20.6 °C 4.6 °C 1021.6 hPa WSW 6.4 km/h 6.4 km/h 35 % 0.0 mm 462.0 W/m2 CLR
12:23 20.6 °C 4.6 °C 1021.6 hPa NW 5.6 km/h 5.6 km/h 35 % 0.0 mm 469.0 W/m2 CLR
12:28 20.6 °C 4.6 °C 1021.2 hPa North 9.3 km/h 9.3 km/h 35 % 0.0 mm 462.0 W/m2 CLR
12:33 21.1 °C 5.1 °C 1021.2 hPa West 16.7 km/h 16.7 km/h 35 % 0.0 mm 464.0 W/m2 CLR
12:38 21.1 °C 5.1 °C 1021.2 hPa West 22.2 km/h 22.2 km/h 35 % 0.0 mm 452.0 W/m2 CLR
12:43 21.1 °C 5.1 °C 1020.9 hPa NW 20.4 km/h 20.4 km/h 35 % 0.0 mm 418.0 W/m2 CLR
12:48 21.1 °C 5.4 °C 1020.9 hPa NW 19.3 km/h 19.3 km/h 36 % 0.0 mm 250.0 W/m2 CLR
12:53 21.1 °C 5.8 °C 1021.2 hPa WNW 20.4 km/h 20.4 km/h 37 % 0.0 mm 345.0 W/m2 CLR
12:58 21.1 °C 6.2 °C 1020.9 hPa WNW 18.5 km/h 18.5 km/h 38 % 0.0 mm 239.0 W/m2 CLR
13:03 21.1 °C 6.2 °C 1020.9 hPa WNW 16.1 km/h 16.1 km/h 38 % 0.0 mm 223.0 W/m2 CLR
13:08 21.1 °C 6.2 °C 1020.9 hPa NW 20.4 km/h 20.4 km/h 38 % 0.0 mm 251.0 W/m2 CLR
13:13 21.1 °C 6.6 °C 1020.9 hPa NW 18.5 km/h 18.5 km/h 39 % 0.0 mm 218.0 W/m2 CLR
13:18 21.1 °C 6.2 °C 1020.9 hPa NW 18.5 km/h 18.5 km/h 38 % 0.0 mm 229.0 W/m2 CLR
13:23 21.1 °C 6.2 °C 1020.9 hPa Calm     38 % 0.0 mm 338.0 W/m2 CLR
13:28 21.7 °C 6.7 °C 1020.9 hPa NW 9.7 km/h 9.7 km/h 38 % 0.0 mm 315.0 W/m2 CLR
13:33 21.7 °C 7.1 °C 1020.9 hPa NW 12.9 km/h 12.9 km/h 39 % 0.0 mm 276.0 W/m2 CLR
13:38 21.7 °C 7.1 °C 1020.9 hPa NNW 7.4 km/h 7.4 km/h 39 % 0.0 mm 292.0 W/m2 CLR
13:43 21.7 °C 7.1 °C 1020.9 hPa NNW 11.1 km/h 11.1 km/h 39 % 0.0 mm 283.0 W/m2 CLR
13:48 21.7 °C 7.5 °C 1020.9 hPa NW 18.5 km/h 18.5 km/h 40 % 0.0 mm 248.0 W/m2 CLR
13:53 21.7 °C 7.5 °C 1020.9 hPa NW 19.3 km/h 19.3 km/h 40 % 0.0 mm 272.0 W/m2 CLR
13:58 21.1 °C 7.0 °C 1020.9 hPa NW 16.7 km/h 16.7 km/h 40 % 0.0 mm 260.0 W/m2 CLR
14:03 21.7 °C 7.1 °C 1020.5 hPa NW 3.7 km/h 3.7 km/h 39 % 0.0 mm 283.0 W/m2 CLR
14:08 21.7 °C 7.1 °C 1020.5 hPa North 18.5 km/h 18.5 km/h 39 % 0.0 mm 269.0 W/m2 CLR
14:13 21.7 °C 7.1 °C 1020.5 hPa NW 18.5 km/h 18.5 km/h 39 % 0.0 mm 243.0 W/m2 CLR
14:18 21.1 °C 6.6 °C 1020.5 hPa NW 18.5 km/h 18.5 km/h 39 % 0.0 mm 264.0 W/m2 CLR
14:24 21.1 °C 7.0 °C 1020.5 hPa Calm   0.8 km/h 40 % 0.0 mm 192.0 W/m2 CLR
14:29 21.1 °C 6.6 °C 1020.5 hPa North 18.5 km/h 18.5 km/h 39 % 0.0 mm 204.0 W/m2 CLR
14:34 21.1 °C 6.6 °C 1020.5 hPa North 4.8 km/h 4.8 km/h 39 % 0.0 mm 316.0 W/m2 CLR
14:39 21.1 °C 6.6 °C 1020.5 hPa NNE 16.7 km/h 16.7 km/h 39 % 0.0 mm 220.0 W/m2 CLR
14:44 21.1 °C 6.6 °C 1020.5 hPa Calm     39 % 0.0 mm 206.0 W/m2 CLR
14:49 21.1 °C 6.6 °C 1020.5 hPa North 5.6 km/h 5.6 km/h 39 % 0.0 mm 160.0 W/m2 CLR
14:54 21.1 °C 6.6 °C 1020.5 hPa Calm     39 % 0.0 mm 130.0 W/m2 CLR
14:59 20.6 °C 5.7 °C 1020.5 hPa NNE 9.7 km/h 9.7 km/h 38 % 0.0 mm 148.0 W/m2 CLR
15:04 20.6 °C 5.3 °C 1020.5 hPa NE 16.7 km/h 16.7 km/h 37 % 0.0 mm 163.0 W/m2 CLR
15:09 20.0 °C 5.2 °C 1020.5 hPa NNE 14.8 km/h 14.8 km/h 38 % 0.0 mm 346.0 W/m2 CLR
15:14 20.6 °C 5.7 °C 1020.5 hPa NE 3.7 km/h   38 % 0.0 mm 399.0 W/m2 CLR
15:19 20.6 °C 5.7 °C 1020.5 hPa NE 3.7 km/h 3.7 km/h 38 % 0.0 mm 236.0 W/m2 CLR
15:24 20.6 °C 6.1 °C 1020.5 hPa NE 5.6 km/h 5.6 km/h 39 % 0.0 mm 276.0 W/m2 CLR
15:29 20.6 °C 6.1 °C 1020.5 hPa NE 5.6 km/h   39 % 0.0 mm 179.0 W/m2 CLR
15:34 20.0 °C 5.6 °C 1020.5 hPa NE 1.9 km/h   39 % 0.0 mm 118.0 W/m2 CLR
15:39 20.0 °C 5.6 °C 1020.5 hPa NE 3.7 km/h 3.7 km/h 39 % 0.0 mm 120.0 W/m2 CLR
15:44 19.4 °C 5.5 °C 1020.5 hPa NNE 1.9 km/h 1.9 km/h 40 % 0.0 mm 90.0 W/m2 CLR
15:49 19.4 °C 5.5 °C 1020.2 hPa NE 5.6 km/h 5.6 km/h 40 % 0.0 mm 107.0 W/m2 CLR
15:54 18.9 °C 5.3 °C 1020.2 hPa Calm     41 % 0.0 mm 79.0 W/m2 CLR
15:59 18.9 °C 5.3 °C 1020.2 hPa Calm     41 % 0.0 mm 83.0 W/m2 FEW
16:04 18.9 °C 5.3 °C 1020.2 hPa Calm     41 % 0.0 mm 88.0 W/m2 FEW
16:09 18.3 °C 5.2 °C 1020.5 hPa Calm     42 % 0.0 mm 84.0 W/m2 FEW
16:14 18.3 °C 5.2 °C 1020.5 hPa Calm     42 % 0.0 mm 81.0 W/m2 FEW
16:19 18.3 °C 5.2 °C 1020.5 hPa Calm     42 % 0.0 mm 81.0 W/m2 FEW
16:24 17.8 °C 4.7 °C 1020.5 hPa Calm     42 % 0.0 mm 76.0 W/m2 FEW
16:29 17.8 °C 5.0 °C 1020.5 hPa Calm     43 % 0.0 mm 69.0 W/m2 FEW
16:34 17.8 °C 5.0 °C 1020.5 hPa Calm     43 % 0.0 mm 65.0 W/m2 SCT
16:39 17.2 °C 4.8 °C 1020.5 hPa Calm     44 % 0.0 mm 84.0 W/m2 FEW
16:44 17.2 °C 4.8 °C 1020.2 hPa Calm     44 % 0.0 mm 56.0 W/m2 SCT
16:49 17.2 °C 4.8 °C 1020.5 hPa Calm     44 % 0.0 mm 56.0 W/m2 SCT
16:54 16.7 °C 4.3 °C 1020.5 hPa Calm     44 % 0.0 mm 47.0 W/m2 SCT
16:59 16.1 °C 4.2 °C 1020.5 hPa Calm     45 % 0.0 mm 42.0 W/m2 BKN
17:04 16.1 °C 4.2 °C 1020.5 hPa Calm     45 % 0.0 mm 39.0 W/m2 BKN
17:09 15.6 °C 3.9 °C 1020.5 hPa Calm     46 % 0.0 mm 32.0 W/m2 BKN
17:14 15.6 °C 3.9 °C 1020.5 hPa Calm     46 % 0.0 mm 19.0 W/m2 BKN
17:19 15.0 °C 3.8 °C 1020.5 hPa Calm     47 % 0.0 mm 12.0 W/m2 BKN
17:24 14.4 °C 3.3 °C 1020.5 hPa Calm     47 % 0.0 mm 9.0 W/m2 BKN
17:29 13.9 °C 2.8 °C 1020.5 hPa Calm     47 % 0.0 mm 5.0 W/m2 OVC
17:34 13.9 °C 3.1 °C 1020.5 hPa Calm     48 % 0.0 mm 0.0 W/m2 OVC
17:39 13.3 °C 2.6 °C 1020.5 hPa Calm     48 % 0.0 mm 0.0 W/m2 OVC
17:44 12.8 °C 2.3 °C 1020.5 hPa Calm     49 % 0.0 mm 0.0 W/m2 CLR
17:49 12.8 °C 2.3 °C 1020.5 hPa Calm     49 % 0.0 mm 0.0 W/m2 CLR
17:54 12.2 °C 2.1 °C 1020.5 hPa Calm     50 % 0.0 mm 0.0 W/m2 CLR
17:59 12.2 °C 2.1 °C 1020.5 hPa Calm     50 % 0.0 mm 0.0 W/m2 CLR
18:04 12.2 °C 2.1 °C 1020.5 hPa Calm     50 % 0.0 mm 0.0 W/m2 CLR
18:09 12.2 °C 2.4 °C 1020.5 hPa Calm     51 % 0.0 mm 0.0 W/m2 CLR
18:14 12.2 °C 2.4 °C 1020.5 hPa Calm     51 % 0.0 mm 0.0 W/m2 CLR
18:19 11.7 °C 2.1 °C 1020.5 hPa Calm     52 % 0.0 mm 0.0 W/m2 CLR
18:24 11.7 °C 2.4 °C 1020.9 hPa Calm     53 % 0.0 mm 0.0 W/m2 CLR
18:29 11.1 °C 2.2 °C 1020.9 hPa Calm     54 % 0.0 mm 0.0 W/m2 CLR
18:34 11.1 °C 2.4 °C 1020.9 hPa Calm     55 % 0.0 mm 0.0 W/m2 CLR
18:39 11.1 °C 2.4 °C 1020.9 hPa Calm     55 % 0.0 mm 0.0 W/m2 CLR
18:44 10.6 °C 1.9 °C 1020.5 hPa Calm     55 % 0.0 mm 0.0 W/m2 CLR
18:49 10.6 °C 2.1 °C 1020.9 hPa Calm     56 % 0.0 mm 0.0 W/m2 CLR
18:54 10.0 °C 1.9 °C 1020.9 hPa Calm     57 % 0.0 mm 0.0 W/m2 CLR
18:59 9.4 °C 1.6 °C 1020.9 hPa Calm     58 % 0.0 mm 0.0 W/m2 CLR
19:04 9.4 °C 1.6 °C 1020.9 hPa Calm     58 % 0.0 mm 0.0 W/m2 CLR
19:09 9.4 °C 1.6 °C 1020.9 hPa Calm     58 % 0.0 mm 0.0 W/m2 CLR
19:14 9.4 °C 2.1 °C 1020.9 hPa Calm     60 % 0.0 mm 0.0 W/m2 CLR
19:19 9.4 °C 2.1 °C 1020.9 hPa Calm     60 % 0.0 mm 0.0 W/m2 CLR
19:24 8.9 °C 1.8 °C 1020.9 hPa Calm     61 % 0.0 mm 0.0 W/m2 CLR
19:29 8.9 °C 1.8 °C 1020.9 hPa Calm     61 % 0.0 mm 0.0 W/m2 CLR
19:34 8.9 °C 2.0 °C 1020.9 hPa Calm     62 % 0.0 mm 0.0 W/m2 CLR
19:39 8.9 °C 2.0 °C 1020.9 hPa Calm     62 % 0.0 mm 0.0 W/m2 CLR
19:44 10.0 °C 2.8 °C 1020.9 hPa Calm     61 % 0.0 mm 0.0 W/m2 CLR
19:49 10.0 °C 3.1 °C 1020.9 hPa Calm     62 % 0.0 mm 0.0 W/m2 CLR
19:54 9.4 °C 2.7 °C 1020.9 hPa Calm     63 % 0.0 mm 0.0 W/m2 CLR
19:59 9.4 °C 2.7 °C 1020.9 hPa Calm     63 % 0.0 mm 0.0 W/m2 CLR
20:04 8.9 °C 2.2 °C 1020.9 hPa Calm     63 % 0.0 mm 0.0 W/m2 CLR
20:09 8.9 °C 2.4 °C 1021.2 hPa Calm     64 % 0.0 mm 0.0 W/m2 CLR
20:14 8.9 °C 2.4 °C 1020.9 hPa Calm     64 % 0.0 mm 0.0 W/m2 CLR
20:19 8.9 °C 2.7 °C 1021.2 hPa Calm     65 % 0.0 mm 0.0 W/m2 CLR
20:24 8.3 °C 1.9 °C 1021.2 hPa Calm     64 % 0.0 mm 0.0 W/m2 CLR
20:29 8.3 °C 2.1 °C 1021.2 hPa Calm     65 % 0.0 mm 0.0 W/m2 CLR
20:34 8.3 °C 2.1 °C 1021.2 hPa Calm     65 % 0.0 mm 0.0 W/m2 CLR
20:39 8.3 °C 2.1 °C 1021.2 hPa Calm     65 % 0.0 mm 0.0 W/m2 CLR
20:44 8.3 °C 2.1 °C 1021.2 hPa Calm     65 % 0.0 mm 0.0 W/m2 CLR
20:49 7.8 °C 1.8 °C 1021.2 hPa Calm     66 % 0.0 mm 0.0 W/m2 CLR
20:54 7.8 °C 1.6 °C 1021.6 hPa Calm     65 % 0.0 mm 0.0 W/m2 CLR
20:59 7.8 °C 1.8 °C 1021.6 hPa Calm     66 % 0.0 mm 0.0 W/m2 CLR
21:05 7.2 °C 1.3 °C 1021.6 hPa Calm     66 % 0.0 mm 0.0 W/m2 CLR
21:10 7.2 °C 1.3 °C 1021.6 hPa Calm     66 % 0.0 mm 0.0 W/m2 CLR
21:15 7.2 °C 1.3 °C 1021.6 hPa Calm     66 % 0.0 mm 0.0 W/m2 CLR
21:20 7.2 °C 1.5 °C 1021.6 hPa Calm     67 % 0.0 mm 0.0 W/m2 CLR
21:25 6.7 °C 0.6 °C 1021.6 hPa Calm     65 % 0.0 mm 0.0 W/m2 CLR
21:30 6.7 °C 0.8 °C 1021.6 hPa Calm     66 % 0.0 mm 0.0 W/m2 CLR
21:35 6.7 °C 0.9 °C 1021.6 hPa Calm     67 % 0.0 mm 0.0 W/m2 CLR
21:40 6.7 °C 0.9 °C 1021.6 hPa Calm     67 % 0.0 mm 0.0 W/m2 CLR
21:45 6.1 °C 0.2 °C 1021.6 hPa Calm     66 % 0.0 mm 0.0 W/m2 CLR
21:50 6.1 °C 0.7 °C 1021.6 hPa Calm     68 % 0.0 mm 0.0 W/m2 CLR
21:55 6.1 °C 0.8 °C 1021.6 hPa Calm     69 % 0.0 mm 0.0 W/m2 CLR
22:00 6.1 °C 0.7 °C 1021.6 hPa Calm     68 % 0.0 mm 0.0 W/m2 CLR
22:05 5.6 °C 0.1 °C 1021.2 hPa Calm     68 % 0.0 mm 0.0 W/m2 CLR
22:10 5.6 °C -0.1 °C 1021.2 hPa Calm     67 % 0.0 mm 0.0 W/m2 CLR
22:15 5.6 °C 0.1 °C 1021.2 hPa Calm     68 % 0.0 mm 0.0 W/m2 CLR
22:20 5.6 °C 0.3 °C 1021.2 hPa Calm     69 % 0.0 mm 0.0 W/m2 CLR
22:25 5.6 °C 0.5 °C 1021.6 hPa Calm     70 % 0.0 mm 0.0 W/m2 CLR
22:30 5.0 °C 0.2 °C 1021.2 hPa Calm     71 % 0.0 mm 0.0 W/m2 CLR
22:35 5.6 °C 0.7 °C 1021.2 hPa Calm     71 % 0.0 mm 0.0 W/m2 CLR
22:40 5.6 °C 0.7 °C 1021.2 hPa Calm     71 % 0.0 mm 0.0 W/m2 CLR
22:41 5.0 °C 0.2 °C 1021.2 hPa Calm     71 % 0.0 mm 0.0 W/m2 CLR
22:46 5.0 °C 0.2 °C 1020.9 hPa Calm     71 % 0.0 mm 0.0 W/m2 CLR
22:51 5.0 °C 0.2 °C 1020.9 hPa Calm     71 % 0.0 mm 0.0 W/m2 CLR
22:52 5.0 °C 0.2 °C 1020.9 hPa Calm     71 % 0.0 mm 0.0 W/m2 CLR
22:57 5.0 °C 0.6 °C 1021.2 hPa Calm     73 % 0.0 mm 0.0 W/m2 CLR
23:02 5.0 °C 0.6 °C 1021.2 hPa Calm     73 % 0.0 mm 0.0 W/m2 CLR
23:07 5.0 °C 0.6 °C 1020.9 hPa Calm     73 % 0.0 mm 0.0 W/m2 CLR
23:12 5.0 °C 0.7 °C 1021.2 hPa Calm     74 % 0.0 mm 0.0 W/m2 CLR
23:17 5.0 °C 0.9 °C 1021.2 hPa Calm     75 % 0.0 mm 0.0 W/m2 CLR
23:22 5.6 °C 1.4 °C 1021.2 hPa Calm     75 % 0.0 mm 0.0 W/m2 CLR
23:27 5.6 °C 1.3 °C 1020.9 hPa Calm     74 % 0.0 mm 0.0 W/m2 CLR
23:32 5.6 °C 1.3 °C 1020.9 hPa Calm     74 % 0.0 mm 0.0 W/m2 CLR
23:37 5.6 °C 1.3 °C 1020.9 hPa Calm     74 % 0.0 mm 0.0 W/m2 CLR
23:42 5.6 °C 1.3 °C 1021.2 hPa Calm     74 % 0.0 mm 0.0 W/m2 CLR
23:47 5.0 °C 0.7 °C 1020.9 hPa Calm     74 % 0.0 mm 0.0 W/m2 CLR
23:52 5.0 °C 0.7 °C 1020.9 hPa Calm     74 % 0.0 mm 0.0 W/m2 CLR
23:57 5.0 °C 0.9 °C 1021.2 hPa Calm     75 % 0.0 mm 0.0 W/m2 CLR
Lo Temps de Massalio
Compliments of Weather Underground - 1 mb